sensor_id;sensor_type;location;lat;lon;timestamp;pressure;altitude;pressure_sealevel;temperature;humidity
68822;BME280;55834;50.870;4.606;2023-06-10T00:00:56;100584.88;;;21.65;35.90
68822;BME280;55834;50.870;4.606;2023-06-10T00:03:21;100582.41;;;21.50;36.69
68822;BME280;55834;50.870;4.606;2023-06-10T00:05:49;100588.28;;;21.55;35.12
68822;BME280;55834;50.870;4.606;2023-06-10T00:08:17;100592.47;;;21.71;36.21
68822;BME280;55834;50.870;4.606;2023-06-10T00:10:45;100585.63;;;20.83;37.56
68822;BME280;55834;50.870;4.606;2023-06-10T00:13:11;100587.19;;;20.99;37.52
68822;BME280;55834;50.870;4.606;2023-06-10T00:15:37;100582.50;;;21.37;37.13
68822;BME280;55834;50.870;4.606;2023-06-10T00:18:08;100579.25;;;20.73;37.86
68822;BME280;55834;50.870;4.606;2023-06-10T00:20:39;100580.09;;;21.22;37.19
68822;BME280;55834;50.870;4.606;2023-06-10T00:23:05;100577.50;;;21.20;36.36
68822;BME280;55834;50.870;4.606;2023-06-10T00:25:36;100576.91;;;21.16;37.49
68822;BME280;55834;50.870;4.606;2023-06-10T00:28:02;100583.31;;;20.79;39.06
68822;BME280;55834;50.870;4.606;2023-06-10T00:30:27;100571.53;;;20.68;37.82
68822;BME280;55834;50.870;4.606;2023-06-10T00:32:53;100572.38;;;20.69;37.90
68822;BME280;55834;50.870;4.606;2023-06-10T00:35:18;100576.19;;;20.66;37.65
68822;BME280;55834;50.870;4.606;2023-06-10T00:37:44;100575.84;;;20.58;37.44
68822;BME280;55834;50.870;4.606;2023-06-10T00:40:10;100584.50;;;20.62;38.50
68822;BME280;55834;50.870;4.606;2023-06-10T00:42:36;100583.88;;;20.71;36.97
68822;BME280;55834;50.870;4.606;2023-06-10T00:45:02;100582.69;;;20.13;38.29
68822;BME280;55834;50.870;4.606;2023-06-10T00:47:28;100578.53;;;20.45;38.10
68822;BME280;55834;50.870;4.606;2023-06-10T00:49:55;100581.03;;;20.36;38.54
68822;BME280;55834;50.870;4.606;2023-06-10T00:52:22;100574.13;;;20.70;37.40
68822;BME280;55834;50.870;4.606;2023-06-10T00:54:51;100576.69;;;20.59;37.43
68822;BME280;55834;50.870;4.606;2023-06-10T00:57:17;100579.94;;;20.64;37.69
68822;BME280;55834;50.870;4.606;2023-06-10T00:59:47;100580.91;;;20.50;37.57
68822;BME280;55834;50.870;4.606;2023-06-10T01:02:13;100574.13;;;20.70;36.49
68822;BME280;55834;50.870;4.606;2023-06-10T01:04:38;100575.41;;;20.64;37.36
68822;BME280;55834;50.870;4.606;2023-06-10T01:09:32;100578.28;;;20.74;37.12
68822;BME280;55834;50.870;4.606;2023-06-10T01:14:47;100580.16;;;20.85;37.60
68822;BME280;55834;50.870;4.606;2023-06-10T01:17:14;100576.88;;;20.32;38.04
68822;BME280;55834;50.870;4.606;2023-06-10T01:19:41;100585.09;;;20.41;37.98
68822;BME280;55834;50.870;4.606;2023-06-10T01:22:09;100574.03;;;20.46;37.42
68822;BME280;55834;50.870;4.606;2023-06-10T01:24:36;100578.00;;;20.53;38.14
68822;BME280;55834;50.870;4.606;2023-06-10T01:27:05;100574.22;;;20.68;38.19
68822;BME280;55834;50.870;4.606;2023-06-10T01:29:37;100576.16;;;20.54;37.91
68822;BME280;55834;50.870;4.606;2023-06-10T01:32:16;100572.41;;;20.56;37.04
68822;BME280;55834;50.870;4.606;2023-06-10T01:34:44;100567.50;;;20.50;37.64
68822;BME280;55834;50.870;4.606;2023-06-10T01:37:27;100570.41;;;20.47;38.62
68822;BME280;55834;50.870;4.606;2023-06-10T01:40:02;100575.41;;;20.51;37.86
68822;BME280;55834;50.870;4.606;2023-06-10T01:42:33;100573.63;;;20.52;38.11
68822;BME280;55834;50.870;4.606;2023-06-10T01:44:59;100577.81;;;20.43;37.61
68822;BME280;55834;50.870;4.606;2023-06-10T01:51:34;100581.34;;;20.44;38.07
68822;BME280;55834;50.870;4.606;2023-06-10T02:11:42;100589.63;;;19.51;40.76
68822;BME280;55834;50.870;4.606;2023-06-10T02:18:07;100588.78;;;19.51;41.01
68822;BME280;55834;50.870;4.606;2023-06-10T02:24:15;100584.00;;;19.02;41.54
68822;BME280;55834;50.870;4.606;2023-06-10T02:27:13;100586.19;;;19.36;40.42
68822;BME280;55834;50.870;4.606;2023-06-10T02:29:38;100588.88;;;19.22;41.01
68822;BME280;55834;50.870;4.606;2023-06-10T02:32:04;100586.69;;;19.02;41.07
68822;BME280;55834;50.870;4.606;2023-06-10T02:34:30;100581.34;;;19.02;41.71
68822;BME280;55834;50.870;4.606;2023-06-10T02:36:56;100581.72;;;19.63;40.02
68822;BME280;55834;50.870;4.606;2023-06-10T02:39:22;100588.34;;;19.70;40.27
68822;BME280;55834;50.870;4.606;2023-06-10T02:41:48;100588.72;;;19.25;40.92
68822;BME280;55834;50.870;4.606;2023-06-10T02:44:13;100591.19;;;19.28;40.70
68822;BME280;55834;50.870;4.606;2023-06-10T02:46:39;100591.16;;;19.68;40.40
68822;BME280;55834;50.870;4.606;2023-06-10T02:49:04;100593.94;;;19.92;39.63
68822;BME280;55834;50.870;4.606;2023-06-10T02:51:30;100595.66;;;19.80;39.76
68822;BME280;55834;50.870;4.606;2023-06-10T02:53:55;100607.06;;;19.97;40.42
68822;BME280;55834;50.870;4.606;2023-06-10T02:56:21;100603.50;;;19.96;40.38
68822;BME280;55834;50.870;4.606;2023-06-10T02:58:47;100607.91;;;19.97;39.95
68822;BME280;55834;50.870;4.606;2023-06-10T03:01:13;100606.06;;;19.98;40.41
68822;BME280;55834;50.870;4.606;2023-06-10T03:03:39;100608.41;;;19.90;40.31
68822;BME280;55834;50.870;4.606;2023-06-10T03:06:10;100605.47;;;19.67;40.65
68822;BME280;55834;50.870;4.606;2023-06-10T03:08:36;100603.91;;;19.77;40.47
68822;BME280;55834;50.870;4.606;2023-06-10T03:11:02;100609.34;;;19.63;39.97
68822;BME280;55834;50.870;4.606;2023-06-10T03:13:28;100610.84;;;19.67;40.81
68822;BME280;55834;50.870;4.606;2023-06-10T03:15:53;100603.44;;;19.71;40.38
68822;BME280;55834;50.870;4.606;2023-06-10T03:18:19;100604.41;;;19.70;40.29
68822;BME280;55834;50.870;4.606;2023-06-10T03:20:45;100606.88;;;19.73;40.07
68822;BME280;55834;50.870;4.606;2023-06-10T03:23:11;100614.50;;;19.66;40.42
68822;BME280;55834;50.870;4.606;2023-06-10T03:25:36;100615.34;;;19.67;40.23
68822;BME280;55834;50.870;4.606;2023-06-10T03:28:02;100616.63;;;19.61;40.95
68822;BME280;55834;50.870;4.606;2023-06-10T03:30:28;100618.31;;;19.62;40.78
68822;BME280;55834;50.870;4.606;2023-06-10T03:32:53;100616.75;;;19.59;40.26
68822;BME280;55834;50.870;4.606;2023-06-10T03:35:19;100613.44;;;19.69;40.20
68822;BME280;55834;50.870;4.606;2023-06-10T03:37:45;100609.66;;;19.58;40.85
68822;BME280;55834;50.870;4.606;2023-06-10T03:40:10;100612.97;;;19.22;41.02
68822;BME280;55834;50.870;4.606;2023-06-10T03:42:36;100612.94;;;19.36;41.24
68822;BME280;55834;50.870;4.606;2023-06-10T03:45:03;100615.84;;;19.46;40.96
68822;BME280;55834;50.870;4.606;2023-06-10T03:47:34;100620.97;;;19.36;41.23
68822;BME280;55834;50.870;4.606;2023-06-10T03:50:12;100623.47;;;19.52;41.41
68822;BME280;55834;50.870;4.606;2023-06-10T03:53:00;100625.34;;;19.37;41.17
68822;BME280;55834;50.870;4.606;2023-06-10T03:55:40;100623.13;;;19.17;41.67
68822;BME280;55834;50.870;4.606;2023-06-10T03:58:13;100628.81;;;19.40;41.40
68822;BME280;55834;50.870;4.606;2023-06-10T04:00:45;100619.56;;;19.31;41.99
68822;BME280;55834;50.870;4.606;2023-06-10T04:03:17;100622.38;;;19.42;41.72
68822;BME280;55834;50.870;4.606;2023-06-10T04:05:44;100624.53;;;19.50;41.61
68822;BME280;55834;50.870;4.606;2023-06-10T04:08:13;100630.28;;;19.31;42.16
68822;BME280;55834;50.870;4.606;2023-06-10T04:10:44;100624.84;;;19.45;42.07
68822;BME280;55834;50.870;4.606;2023-06-10T04:13:15;100631.78;;;19.35;42.02
68822;BME280;55834;50.870;4.606;2023-06-10T04:15:47;100628.16;;;19.49;41.89
68822;BME280;55834;50.870;4.606;2023-06-10T04:18:13;100637.63;;;19.54;42.12
68822;BME280;55834;50.870;4.606;2023-06-10T04:20:41;100637.91;;;19.50;41.47
68822;BME280;55834;50.870;4.606;2023-06-10T04:23:07;100635.34;;;19.48;41.90
68822;BME280;55834;50.870;4.606;2023-06-10T04:25:33;100638.97;;;19.47;42.03
68822;BME280;55834;50.870;4.606;2023-06-10T04:28:04;100631.28;;;19.55;41.67
68822;BME280;55834;50.870;4.606;2023-06-10T04:30:33;100639.00;;;19.60;41.49
68822;BME280;55834;50.870;4.606;2023-06-10T04:33:07;100643.94;;;19.66;41.54
68822;BME280;55834;50.870;4.606;2023-06-10T04:35:38;100648.13;;;19.70;41.96
68822;BME280;55834;50.870;4.606;2023-06-10T04:38:10;100652.63;;;19.70;41.99
68822;BME280;55834;50.870;4.606;2023-06-10T04:40:35;100651.34;;;19.88;41.85
68822;BME280;55834;50.870;4.606;2023-06-10T04:43:03;100646.47;;;20.08;41.64
68822;BME280;55834;50.870;4.606;2023-06-10T04:45:31;100649.81;;;20.24;41.16
68822;BME280;55834;50.870;4.606;2023-06-10T04:48:04;100654.69;;;20.43;41.29
68822;BME280;55834;50.870;4.606;2023-06-10T04:50:32;100645.25;;;20.50;41.20
68822;BME280;55834;50.870;4.606;2023-06-10T04:53:07;100641.06;;;20.59;41.42
68822;BME280;55834;50.870;4.606;2023-06-10T04:55:47;100644.56;;;20.85;41.23
68822;BME280;55834;50.870;4.606;2023-06-10T04:58:32;100644.19;;;21.02;40.76
68822;BME280;55834;50.870;4.606;2023-06-10T05:08:20;100643.06;;;21.42;39.48
68822;BME280;55834;50.870;4.606;2023-06-10T05:10:27;100645.19;;;21.60;38.72
68822;BME280;55834;50.870;4.606;2023-06-10T05:12:57;100650.13;;;21.78;38.69
68822;BME280;55834;50.870;4.606;2023-06-10T05:15:23;100650.66;;;21.94;39.03
68822;BME280;55834;50.870;4.606;2023-06-10T05:18:01;100656.47;;;22.12;38.35
68822;BME280;55834;50.870;4.606;2023-06-10T05:20:43;100656.47;;;22.23;37.66
68822;BME280;55834;50.870;4.606;2023-06-10T05:23:26;100657.69;;;22.42;37.67
68822;BME280;55834;50.870;4.606;2023-06-10T05:25:56;100655.75;;;22.44;37.95
68822;BME280;55834;50.870;4.606;2023-06-10T05:28:35;100651.22;;;22.33;38.35
68822;BME280;55834;50.870;4.606;2023-06-10T05:31:05;100646.56;;;22.35;37.31
68822;BME280;55834;50.870;4.606;2023-06-10T05:33:33;100646.19;;;22.40;37.66
68822;BME280;55834;50.870;4.606;2023-06-10T05:36:01;100649.34;;;22.22;38.18
68822;BME280;55834;50.870;4.606;2023-06-10T05:38:41;100644.47;;;22.50;37.70
68822;BME280;55834;50.870;4.606;2023-06-10T05:41:11;100647.78;;;22.53;38.42
68822;BME280;55834;50.870;4.606;2023-06-10T05:43:38;100645.47;;;22.49;37.37
68822;BME280;55834;50.870;4.606;2023-06-10T05:46:05;100657.78;;;22.85;37.07
68822;BME280;55834;50.870;4.606;2023-06-10T05:48:33;100654.97;;;22.98;37.99
68822;BME280;55834;50.870;4.606;2023-06-10T05:50:59;100656.94;;;22.96;36.62
68822;BME280;55834;50.870;4.606;2023-06-10T05:53:25;100649.59;;;22.87;37.73
68822;BME280;55834;50.870;4.606;2023-06-10T05:55:53;100656.63;;;22.67;38.62
68822;BME280;55834;50.870;4.606;2023-06-10T05:58:23;100650.03;;;23.03;37.81
68822;BME280;55834;50.870;4.606;2023-06-10T06:01:02;100654.09;;;22.97;38.13
68822;BME280;55834;50.870;4.606;2023-06-10T06:03:28;100661.38;;;23.29;37.49
68822;BME280;55834;50.870;4.606;2023-06-10T06:05:54;100657.22;;;23.57;36.90
68822;BME280;55834;50.870;4.606;2023-06-10T06:08:19;100657.19;;;23.36;36.41
68822;BME280;55834;50.870;4.606;2023-06-10T06:10:45;100662.94;;;23.64;37.27
68822;BME280;55834;50.870;4.606;2023-06-10T06:13:11;100659.78;;;23.80;36.75
68822;BME280;55834;50.870;4.606;2023-06-10T06:15:39;100657.66;;;23.95;36.24
68822;BME280;55834;50.870;4.606;2023-06-10T06:18:16;100665.25;;;24.11;35.88
68822;BME280;55834;50.870;4.606;2023-06-10T06:20:44;100660.78;;;24.21;36.11
68822;BME280;55834;50.870;4.606;2023-06-10T06:23:09;100664.69;;;24.38;35.39
68822;BME280;55834;50.870;4.606;2023-06-10T06:25:38;100674.97;;;24.44;34.92
68822;BME280;55834;50.870;4.606;2023-06-10T06:28:07;100676.91;;;24.11;35.08
68822;BME280;55834;50.870;4.606;2023-06-10T06:30:36;100680.13;;;24.26;36.03
68822;BME280;55834;50.870;4.606;2023-06-10T06:33:02;100675.97;;;24.43;35.22
68822;BME280;55834;50.870;4.606;2023-06-10T06:35:32;100689.09;;;24.36;35.40
68822;BME280;55834;50.870;4.606;2023-06-10T06:38:02;100683.25;;;24.52;35.42
68822;BME280;55834;50.870;4.606;2023-06-10T06:40:29;100685.25;;;24.29;33.84
68822;BME280;55834;50.870;4.606;2023-06-10T06:42:55;100680.13;;;24.26;34.67
68822;BME280;55834;50.870;4.606;2023-06-10T06:45:23;100683.28;;;24.31;34.33
68822;BME280;55834;50.870;4.606;2023-06-10T06:47:48;100676.28;;;24.49;34.71
68822;BME280;55834;50.870;4.606;2023-06-10T06:50:13;100679.47;;;24.74;34.71
68822;BME280;55834;50.870;4.606;2023-06-10T06:52:39;100678.97;;;24.90;33.60
68822;BME280;55834;50.870;4.606;2023-06-10T06:55:05;100677.84;;;24.92;35.19
68822;BME280;55834;50.870;4.606;2023-06-10T06:57:31;100679.25;;;24.96;32.90
68822;BME280;55834;50.870;4.606;2023-06-10T06:59:59;100690.63;;;25.00;33.11
68822;BME280;55834;50.870;4.606;2023-06-10T07:02:25;100691.25;;;24.63;33.56
68822;BME280;55834;50.870;4.606;2023-06-10T07:04:53;100689.94;;;24.58;34.23
68822;BME280;55834;50.870;4.606;2023-06-10T07:07:24;100686.03;;;24.71;33.76
68822;BME280;55834;50.870;4.606;2023-06-10T07:09:49;100687.69;;;25.03;33.67
68822;BME280;55834;50.870;4.606;2023-06-10T07:12:15;100689.63;;;24.91;32.51
68822;BME280;55834;50.870;4.606;2023-06-10T07:14:50;100687.00;;;25.01;33.89
68822;BME280;55834;50.870;4.606;2023-06-10T07:17:18;100692.97;;;25.14;32.92
68822;BME280;55834;50.870;4.606;2023-06-10T07:19:45;100683.19;;;25.33;33.54
68822;BME280;55834;50.870;4.606;2023-06-10T07:22:11;100694.34;;;24.99;33.47
68822;BME280;55834;50.870;4.606;2023-06-10T07:24:37;100694.97;;;25.32;33.27
68822;BME280;55834;50.870;4.606;2023-06-10T07:27:02;100692.31;;;25.61;33.62
68822;BME280;55834;50.870;4.606;2023-06-10T07:29:31;100695.28;;;25.87;33.07
68822;BME280;55834;50.870;4.606;2023-06-10T07:31:56;100695.50;;;26.13;32.32
68822;BME280;55834;50.870;4.606;2023-06-10T07:34:22;100693.25;;;26.28;32.49
68822;BME280;55834;50.870;4.606;2023-06-10T07:36:47;100688.88;;;26.17;31.09
68822;BME280;55834;50.870;4.606;2023-06-10T07:39:13;100694.41;;;26.16;31.57
68822;BME280;55834;50.870;4.606;2023-06-10T07:41:38;100700.31;;;26.39;31.80
68822;BME280;55834;50.870;4.606;2023-06-10T07:44:04;100698.19;;;26.42;30.88
68822;BME280;55834;50.870;4.606;2023-06-10T07:46:30;100699.19;;;26.41;31.43
68822;BME280;55834;50.870;4.606;2023-06-10T07:48:58;100703.81;;;26.59;31.61
68822;BME280;55834;50.870;4.606;2023-06-10T07:51:23;100711.50;;;26.63;31.45
68822;BME280;55834;50.870;4.606;2023-06-10T07:53:49;100708.06;;;26.71;31.97
68822;BME280;55834;50.870;4.606;2023-06-10T07:56:15;100705.63;;;26.68;31.36
68822;BME280;55834;50.870;4.606;2023-06-10T07:58:40;100707.19;;;26.80;32.04
68822;BME280;55834;50.870;4.606;2023-06-10T08:01:06;100711.56;;;26.44;30.94
68822;BME280;55834;50.870;4.606;2023-06-10T08:03:32;100705.75;;;26.76;31.15
68822;BME280;55834;50.870;4.606;2023-06-10T08:05:58;100706.06;;;27.01;32.05
68822;BME280;55834;50.870;4.606;2023-06-10T08:08:23;100700.38;;;26.94;31.45
68822;BME280;55834;50.870;4.606;2023-06-10T08:10:49;100699.72;;;27.10;31.47
68822;BME280;55834;50.870;4.606;2023-06-10T08:13:18;100703.63;;;27.25;29.08
68822;BME280;55834;50.870;4.606;2023-06-10T08:15:43;100703.50;;;27.27;29.58
68822;BME280;55834;50.870;4.606;2023-06-10T08:18:09;100703.81;;;27.14;30.29
68822;BME280;55834;50.870;4.606;2023-06-10T08:20:34;100697.63;;;27.04;30.85
68822;BME280;55834;50.870;4.606;2023-06-10T08:23:00;100702.97;;;27.13;31.03
68822;BME280;55834;50.870;4.606;2023-06-10T08:25:25;100700.63;;;27.46;31.02
68822;BME280;55834;50.870;4.606;2023-06-10T08:27:51;100703.34;;;27.28;30.95
68822;BME280;55834;50.870;4.606;2023-06-10T08:30:17;100701.56;;;27.73;29.94
68822;BME280;55834;50.870;4.606;2023-06-10T08:32:43;100696.22;;;27.81;29.06
68822;BME280;55834;50.870;4.606;2023-06-10T08:35:09;100707.97;;;27.89;29.03
68822;BME280;55834;50.870;4.606;2023-06-10T08:37:34;100711.66;;;28.06;29.84
68822;BME280;55834;50.870;4.606;2023-06-10T08:40:00;100699.47;;;27.49;28.68
68822;BME280;55834;50.870;4.606;2023-06-10T08:45:02;100698.91;;;27.63;29.02
68822;BME280;55834;50.870;4.606;2023-06-10T08:47:30;100706.06;;;27.64;29.22
68822;BME280;55834;50.870;4.606;2023-06-10T08:50:03;100703.31;;;28.00;27.81
68822;BME280;55834;50.870;4.606;2023-06-10T08:52:35;100703.13;;;28.19;29.10
68822;BME280;55834;50.870;4.606;2023-06-10T08:55:07;100706.50;;;28.21;27.42
68822;BME280;55834;50.870;4.606;2023-06-10T08:57:36;100704.75;;;28.12;28.41
68822;BME280;55834;50.870;4.606;2023-06-10T09:00:03;100707.16;;;28.33;27.05
68822;BME280;55834;50.870;4.606;2023-06-10T09:02:31;100700.88;;;28.15;26.98
68822;BME280;55834;50.870;4.606;2023-06-10T09:05:00;100696.56;;;28.04;26.92
68822;BME280;55834;50.870;4.606;2023-06-10T09:07:27;100704.09;;;28.36;27.50
68822;BME280;55834;50.870;4.606;2023-06-10T09:09:57;100707.06;;;28.25;28.61
68822;BME280;55834;50.870;4.606;2023-06-10T09:12:23;100699.38;;;28.20;27.10
68822;BME280;55834;50.870;4.606;2023-06-10T09:14:48;100692.69;;;28.32;27.47
68822;BME280;55834;50.870;4.606;2023-06-10T09:17:14;100701.19;;;28.64;27.22
68822;BME280;55834;50.870;4.606;2023-06-10T09:19:40;100701.50;;;28.61;27.41
68822;BME280;55834;50.870;4.606;2023-06-10T09:22:07;100690.56;;;28.44;26.51
68822;BME280;55834;50.870;4.606;2023-06-10T09:24:35;100689.69;;;28.78;26.88
68822;BME280;55834;50.870;4.606;2023-06-10T09:27:05;100694.25;;;28.69;25.80
68822;BME280;55834;50.870;4.606;2023-06-10T09:29:44;100697.47;;;28.39;26.30
68822;BME280;55834;50.870;4.606;2023-06-10T09:32:10;100690.63;;;27.82;26.54
68822;BME280;55834;50.870;4.606;2023-06-10T09:34:36;100696.81;;;28.37;27.23
68822;BME280;55834;50.870;4.606;2023-06-10T09:37:02;100692.91;;;28.82;26.86
68822;BME280;55834;50.870;4.606;2023-06-10T09:39:27;100690.31;;;28.64;27.22
68822;BME280;55834;50.870;4.606;2023-06-10T09:41:52;100689.47;;;29.06;25.39
68822;BME280;55834;50.870;4.606;2023-06-10T09:44:20;100692.88;;;29.08;24.29
68822;BME280;55834;50.870;4.606;2023-06-10T09:46:47;100689.00;;;29.18;25.43
68822;BME280;55834;50.870;4.606;2023-06-10T09:49:13;100690.16;;;29.16;25.65
68822;BME280;55834;50.870;4.606;2023-06-10T09:51:51;100687.81;;;29.21;26.45
68822;BME280;55834;50.870;4.606;2023-06-10T09:54:18;100689.56;;;29.38;26.23
68822;BME280;55834;50.870;4.606;2023-06-10T09:56:48;100690.13;;;28.91;25.75
68822;BME280;55834;50.870;4.606;2023-06-10T09:59:14;100686.63;;;29.23;24.12
68822;BME280;55834;50.870;4.606;2023-06-10T10:01:40;100689.06;;;29.51;25.25
68822;BME280;55834;50.870;4.606;2023-06-10T10:04:06;100688.72;;;29.79;24.77
68822;BME280;55834;50.870;4.606;2023-06-10T10:06:33;100689.59;;;29.87;25.59
68822;BME280;55834;50.870;4.606;2023-06-10T10:08:59;100687.03;;;29.70;23.39
68822;BME280;55834;50.870;4.606;2023-06-10T10:11:30;100693.47;;;29.44;24.54
68822;BME280;55834;50.870;4.606;2023-06-10T10:13:57;100696.44;;;29.08;24.11
68822;BME280;55834;50.870;4.606;2023-06-10T10:16:40;100695.94;;;29.13;23.11
68822;BME280;55834;50.870;4.606;2023-06-10T10:19:37;100687.81;;;29.29;23.93
68822;BME280;55834;50.870;4.606;2023-06-10T10:22:07;100687.03;;;29.53;25.28
68822;BME280;55834;50.870;4.606;2023-06-10T10:24:44;100687.69;;;29.47;23.91
68822;BME280;55834;50.870;4.606;2023-06-10T10:27:18;100677.66;;;29.80;24.04
68822;BME280;55834;50.870;4.606;2023-06-10T10:29:54;100679.03;;;30.01;23.97
68822;BME280;55834;50.870;4.606;2023-06-10T10:32:43;100683.31;;;29.87;24.33
68822;BME280;55834;50.870;4.606;2023-06-10T10:35:23;100680.19;;;30.06;22.63
68822;BME280;55834;50.870;4.606;2023-06-10T10:37:55;100677.69;;;29.97;22.95
68822;BME280;55834;50.870;4.606;2023-06-10T10:40:22;100684.47;;;29.84;22.12
68822;BME280;55834;50.870;4.606;2023-06-10T10:42:51;100674.44;;;29.68;23.25
68822;BME280;55834;50.870;4.606;2023-06-10T10:45:18;100677.19;;;29.85;24.13
68822;BME280;55834;50.870;4.606;2023-06-10T10:47:45;100675.56;;;30.23;22.23
68822;BME280;55834;50.870;4.606;2023-06-10T10:50:15;100680.66;;;30.43;22.23
68822;BME280;55834;50.870;4.606;2023-06-10T10:53:04;100665.22;;;30.19;21.82
68822;BME280;55834;50.870;4.606;2023-06-10T10:55:31;100670.09;;;30.48;22.34
68822;BME280;55834;50.870;4.606;2023-06-10T10:58:06;100674.63;;;30.64;21.69
68822;BME280;55834;50.870;4.606;2023-06-10T11:00:36;100680.31;;;30.29;22.08
68822;BME280;55834;50.870;4.606;2023-06-10T11:03:06;100671.25;;;29.89;22.35
68822;BME280;55834;50.870;4.606;2023-06-10T11:05:43;100669.50;;;28.81;21.06
68822;BME280;55834;50.870;4.606;2023-06-10T11:08:13;100668.84;;;29.37;22.08
68822;BME280;55834;50.870;4.606;2023-06-10T11:10:57;100676.47;;;28.83;20.83
68822;BME280;55834;50.870;4.606;2023-06-10T11:17:23;100657.38;;;27.09;25.18
68822;BME280;55834;50.870;4.606;2023-06-10T11:20:41;100654.94;;;27.33;23.29
68822;BME280;55834;50.870;4.606;2023-06-10T11:24:18;100647.25;;;27.64;24.40
68822;BME280;55834;50.870;4.606;2023-06-10T11:26:44;100658.47;;;28.40;25.01
68822;BME280;55834;50.870;4.606;2023-06-10T11:29:21;100650.94;;;28.60;22.73
68822;BME280;55834;50.870;4.606;2023-06-10T11:35:24;100638.81;;;28.96;23.47
68822;BME280;55834;50.870;4.606;2023-06-10T11:40:57;100646.53;;;29.17;22.55
68822;BME280;55834;50.870;4.606;2023-06-10T11:43:33;100641.81;;;29.60;24.56
68822;BME280;55834;50.870;4.606;2023-06-10T11:45:58;100632.25;;;29.97;22.71
68822;BME280;55834;50.870;4.606;2023-06-10T11:48:37;100636.66;;;30.06;23.19
68822;BME280;55834;50.870;4.606;2023-06-10T11:53:50;100645.59;;;28.50;21.50
68822;BME280;55834;50.870;4.606;2023-06-10T11:56:22;100645.88;;;29.48;22.47
68822;BME280;55834;50.870;4.606;2023-06-10T11:59:02;100635.47;;;29.27;21.95
68822;BME280;55834;50.870;4.606;2023-06-10T12:01:45;100630.25;;;29.66;22.18
68822;BME280;55834;50.870;4.606;2023-06-10T12:04:13;100632.59;;;30.02;21.91
68822;BME280;55834;50.870;4.606;2023-06-10T12:06:48;100623.81;;;30.40;20.22
68822;BME280;55834;50.870;4.606;2023-06-10T12:09:28;100633.13;;;28.73;21.45
68822;BME280;55834;50.870;4.606;2023-06-10T12:12:14;100632.78;;;28.00;22.99
68822;BME280;55834;50.870;4.606;2023-06-10T12:15:00;100625.84;;;29.49;22.69
68822;BME280;55834;50.870;4.606;2023-06-10T12:20:20;100621.56;;;29.96;19.95
68822;BME280;55834;50.870;4.606;2023-06-10T12:23:08;100619.53;;;29.65;21.12
68822;BME280;55834;50.870;4.606;2023-06-10T12:26:09;100627.56;;;30.30;20.45
68822;BME280;55834;50.870;4.606;2023-06-10T12:28:51;100620.75;;;30.26;19.99
68822;BME280;55834;50.870;4.606;2023-06-10T12:31:51;100616.81;;;30.45;20.71
68822;BME280;55834;50.870;4.606;2023-06-10T12:34:49;100608.50;;;29.42;19.91
68822;BME280;55834;50.870;4.606;2023-06-10T12:37:55;100613.06;;;30.46;21.29
68822;BME280;55834;50.870;4.606;2023-06-10T12:41:05;100607.22;;;30.10;20.01
68822;BME280;55834;50.870;4.606;2023-06-10T12:44:32;100613.44;;;29.55;20.75
68822;BME280;55834;50.870;4.606;2023-06-10T12:48:03;100614.56;;;30.01;21.51
68822;BME280;55834;50.870;4.606;2023-06-10T12:51:12;100613.19;;;30.05;20.58
68822;BME280;55834;50.870;4.606;2023-06-10T13:13:42;100608.25;;;30.01;19.48
68822;BME280;55834;50.870;4.606;2023-06-10T13:19:41;100591.13;;;29.67;20.38
68822;BME280;55834;50.870;4.606;2023-06-10T13:22:22;100593.84;;;29.27;20.02
68822;BME280;55834;50.870;4.606;2023-06-10T13:24:59;100583.84;;;29.43;20.65
68822;BME280;55834;50.870;4.606;2023-06-10T13:27:35;100589.59;;;29.49;20.09
68822;BME280;55834;50.870;4.606;2023-06-10T13:30:07;100591.50;;;29.40;20.92
68822;BME280;55834;50.870;4.606;2023-06-10T13:32:40;100593.00;;;29.18;21.82
68822;BME280;55834;50.870;4.606;2023-06-10T13:35:15;100595.53;;;29.03;20.48
68822;BME280;55834;50.870;4.606;2023-06-10T13:37:46;100584.34;;;29.14;20.86
68822;BME280;55834;50.870;4.606;2023-06-10T13:40:26;100582.47;;;29.72;21.01
68822;BME280;55834;50.870;4.606;2023-06-10T13:42:53;100582.19;;;30.15;20.00
68822;BME280;55834;50.870;4.606;2023-06-10T13:51:30;100585.50;;;29.77;20.06
68822;BME280;55834;50.870;4.606;2023-06-10T13:54:05;100571.56;;;30.44;20.74
68822;BME280;55834;50.870;4.606;2023-06-10T13:56:34;100576.09;;;30.52;19.92
68822;BME280;55834;50.870;4.606;2023-06-10T13:59:03;100577.94;;;30.12;20.10
68822;BME280;55834;50.870;4.606;2023-06-10T14:01:34;100573.41;;;30.75;21.14
68822;BME280;55834;50.870;4.606;2023-06-10T14:04:03;100572.44;;;29.56;21.39
68822;BME280;55834;50.870;4.606;2023-06-10T14:06:32;100572.44;;;29.73;20.29
68822;BME280;55834;50.870;4.606;2023-06-10T14:09:02;100571.31;;;30.54;19.94
68822;BME280;55834;50.870;4.606;2023-06-10T14:11:38;100565.97;;;29.25;21.04
68822;BME280;55834;50.870;4.606;2023-06-10T14:14:06;100572.00;;;30.08;21.62
68822;BME280;55834;50.870;4.606;2023-06-10T14:16:32;100563.50;;;30.51;19.54
68822;BME280;55834;50.870;4.606;2023-06-10T14:18:57;100566.00;;;30.92;19.98
68822;BME280;55834;50.870;4.606;2023-06-10T14:21:25;100575.59;;;30.79;19.21
68822;BME280;55834;50.870;4.606;2023-06-10T14:23:53;100567.25;;;31.04;19.86
68822;BME280;55834;50.870;4.606;2023-06-10T14:26:19;100560.16;;;31.18;20.75
68822;BME280;55834;50.870;4.606;2023-06-10T14:28:47;100569.16;;;31.04;20.64
68822;BME280;55834;50.870;4.606;2023-06-10T14:31:16;100567.47;;;31.03;19.65
68822;BME280;55834;50.870;4.606;2023-06-10T14:33:42;100558.28;;;31.18;19.34
68822;BME280;55834;50.870;4.606;2023-06-10T14:36:10;100570.66;;;31.06;18.53
68822;BME280;55834;50.870;4.606;2023-06-10T14:38:36;100564.00;;;30.86;20.10